createdAt,value
2023-04-30T00:02:24.046Z,10.66
2023-04-30T00:04:51.067Z,10.77
2023-04-30T00:07:17.810Z,10.83
2023-04-30T00:09:44.602Z,10.84
2023-04-30T00:12:11.437Z,10.87
2023-04-30T00:14:38.165Z,10.78
2023-04-30T00:17:04.938Z,10.55
2023-04-30T00:19:31.686Z,10.83
2023-04-30T00:21:58.470Z,10.73
2023-04-30T00:24:25.267Z,10.54
2023-04-30T00:26:51.991Z,10.63
2023-04-30T00:29:18.951Z,10.59
2023-04-30T00:31:45.891Z,10.37
2023-04-30T00:34:12.700Z,10.17
2023-04-30T00:36:40.689Z,10.08
2023-04-30T00:39:07.512Z,10.04
2023-04-30T00:41:36.085Z,10.28
2023-04-30T00:44:03.160Z,10.25
2023-04-30T00:46:31.025Z,10.45
2023-04-30T00:48:58.232Z,10.54
2023-04-30T00:51:25.183Z,10.51
2023-04-30T00:53:52.038Z,10.46
2023-04-30T00:56:18.988Z,10.54
2023-04-30T00:58:46.028Z,10.59
2023-04-30T01:01:12.928Z,10.57
2023-04-30T01:03:39.983Z,10.52
2023-04-30T01:06:06.859Z,10.56
2023-04-30T01:08:34.213Z,10.59
2023-04-30T01:11:17.603Z,10.34
2023-04-30T01:14:03.023Z,10.30
2023-04-30T01:16:36.242Z,10.49
2023-04-30T01:19:12.024Z,10.46
2023-04-30T01:21:41.871Z,10.34
2023-04-30T01:24:15.242Z,10.29
2023-04-30T01:27:07.165Z,10.01
2023-04-30T01:29:35.213Z,10.03
2023-04-30T01:32:02.876Z,9.94
2023-04-30T01:34:29.590Z,10.00
2023-04-30T01:37:17.853Z,10.13
2023-04-30T01:39:50.675Z,9.97
2023-04-30T01:42:22.717Z,9.91
2023-04-30T01:45:07.463Z,9.93
2023-04-30T01:47:38.396Z,10.20
2023-04-30T01:50:14.184Z,10.18
2023-04-30T01:52:47.103Z,10.28
2023-04-30T01:55:21.534Z,10.13
2023-04-30T01:57:58.734Z,9.99
2023-04-30T02:00:30.816Z,9.84
2023-04-30T02:02:58.528Z,9.67
2023-04-30T02:05:25.710Z,9.89
2023-04-30T02:07:52.879Z,9.70
2023-04-30T02:10:22.320Z,9.61
2023-04-30T02:12:49.190Z,9.64
2023-04-30T02:15:16.363Z,9.77
2023-04-30T02:17:43.223Z,9.89
2023-04-30T02:20:10.596Z,9.69
2023-04-30T02:22:37.787Z,9.61
2023-04-30T02:25:04.868Z,9.67
2023-04-30T02:27:33.175Z,9.53
2023-04-30T02:30:00.581Z,9.60
2023-04-30T02:32:27.453Z,9.56
2023-04-30T02:34:54.232Z,9.37
2023-04-30T02:37:21.225Z,9.47
2023-04-30T02:39:47.955Z,9.34
2023-04-30T02:42:14.699Z,9.42
2023-04-30T02:44:41.967Z,9.27
2023-04-30T02:47:08.662Z,9.19
2023-04-30T02:49:35.681Z,9.23
2023-04-30T02:52:02.540Z,9.19
2023-04-30T02:54:29.270Z,9.10
2023-04-30T02:56:56.793Z,9.04
2023-04-30T02:59:23.494Z,9.01
2023-04-30T03:01:50.345Z,8.93
2023-04-30T03:04:17.117Z,9.03
2023-04-30T03:06:43.955Z,9.16
2023-04-30T03:09:10.782Z,9.11
2023-04-30T03:11:37.911Z,9.00
2023-04-30T03:14:07.878Z,8.92
2023-04-30T03:16:34.674Z,8.90
2023-04-30T03:19:01.384Z,8.82
2023-04-30T03:21:28.257Z,8.81
2023-04-30T03:23:54.988Z,8.82
2023-04-30T03:26:22.291Z,8.96
2023-04-30T03:28:49.535Z,8.87
2023-04-30T03:31:16.328Z,8.90
2023-04-30T03:33:43.151Z,8.67
2023-04-30T03:36:09.969Z,8.95
2023-04-30T03:38:36.704Z,9.02
2023-04-30T03:41:04.018Z,9.06
2023-04-30T03:43:30.884Z,8.85
2023-04-30T03:45:58.000Z,8.75
2023-04-30T03:48:24.724Z,8.85
2023-04-30T03:50:51.633Z,8.88
2023-04-30T03:53:18.464Z,8.86
2023-04-30T03:55:45.575Z,8.74
2023-04-30T03:58:12.313Z,8.83
2023-04-30T04:00:41.808Z,8.71
2023-04-30T04:03:08.671Z,8.77
2023-04-30T04:05:35.451Z,8.76
2023-04-30T04:08:02.188Z,8.71
2023-04-30T04:10:29.251Z,8.94
2023-04-30T04:12:55.933Z,8.75
2023-04-30T04:15:22.641Z,8.85
2023-04-30T04:17:49.411Z,8.86
2023-04-30T04:20:16.147Z,8.79
2023-04-30T04:22:42.828Z,8.77
2023-04-30T04:25:10.649Z,8.83
2023-04-30T04:27:37.437Z,8.87
2023-04-30T04:30:04.491Z,8.82
2023-04-30T04:32:32.843Z,8.69
2023-04-30T04:34:59.665Z,8.77
2023-04-30T04:37:26.417Z,9.11
2023-04-30T04:39:53.392Z,9.19
2023-04-30T04:42:20.689Z,9.21
2023-04-30T04:44:47.385Z,9.04
2023-04-30T04:47:14.150Z,9.04
2023-04-30T04:49:40.967Z,9.07
2023-04-30T04:52:07.770Z,9.14
2023-04-30T04:54:34.869Z,9.09
2023-04-30T04:57:03.174Z,9.19
2023-04-30T04:59:30.119Z,9.16
2023-04-30T05:01:56.932Z,9.29
2023-04-30T05:04:23.734Z,9.30
2023-04-30T05:06:50.483Z,9.33
2023-04-30T05:09:17.709Z,9.37
2023-04-30T05:11:46.381Z,9.42
2023-04-30T05:14:13.105Z,9.66
2023-04-30T05:16:40.378Z,9.62
2023-04-30T05:19:09.879Z,9.66
2023-04-30T05:21:36.642Z,9.58
2023-04-30T05:24:03.941Z,9.67
2023-04-30T05:26:30.956Z,9.84
2023-04-30T05:28:57.848Z,9.93
2023-04-30T05:31:24.701Z,10.10
2023-04-30T05:33:51.462Z,9.91
2023-04-30T05:36:18.227Z,9.90
2023-04-30T05:38:45.296Z,9.88
2023-04-30T05:41:12.944Z,10.26
2023-04-30T05:43:39.756Z,10.40
2023-04-30T05:46:06.806Z,10.39
2023-04-30T05:48:33.685Z,10.37
2023-04-30T05:51:00.465Z,10.39
2023-04-30T05:53:27.197Z,10.65
2023-04-30T05:55:53.925Z,10.48
2023-04-30T05:58:20.713Z,10.70
2023-04-30T06:00:52.424Z,10.97
2023-04-30T06:03:19.785Z,11.31
2023-04-30T06:05:47.975Z,11.38
2023-04-30T06:08:14.857Z,11.38
2023-04-30T06:10:42.028Z,11.29
2023-04-30T06:13:08.776Z,11.71
2023-04-30T06:15:35.612Z,11.83
2023-04-30T06:18:02.381Z,12.04
2023-04-30T06:20:29.252Z,12.15
2023-04-30T06:22:56.023Z,12.53
2023-04-30T06:25:22.806Z,12.67
2023-04-30T06:27:51.751Z,12.77
2023-04-30T06:30:18.553Z,12.73
2023-04-30T06:32:45.325Z,12.77
2023-04-30T06:35:12.082Z,12.97
2023-04-30T06:37:38.890Z,13.02
2023-04-30T06:40:06.649Z,13.23
2023-04-30T06:42:36.447Z,13.28
2023-04-30T06:45:04.083Z,13.21
2023-04-30T06:47:42.931Z,13.27
2023-04-30T06:50:10.004Z,13.30
2023-04-30T06:52:36.747Z,13.26
2023-04-30T06:55:03.675Z,13.20
2023-04-30T06:57:31.312Z,13.17
2023-04-30T06:59:58.027Z,13.27
2023-04-30T07:02:24.945Z,13.21
2023-04-30T07:04:51.752Z,13.53
2023-04-30T07:07:18.638Z,13.82
2023-04-30T07:09:45.337Z,13.87
2023-04-30T07:12:13.762Z,13.83
2023-04-30T07:14:40.801Z,13.94
2023-04-30T07:17:07.523Z,14.14
2023-04-30T07:19:34.279Z,14.31
2023-04-30T07:22:01.248Z,14.81
2023-04-30T07:24:28.156Z,15.05
2023-04-30T07:26:55.001Z,14.78
2023-04-30T07:29:21.850Z,15.06
2023-04-30T07:31:48.721Z,15.17
2023-04-30T07:34:15.564Z,15.28
2023-04-30T07:36:42.316Z,15.10
2023-04-30T07:39:09.272Z,15.05
2023-04-30T07:41:36.134Z,14.80
2023-04-30T07:44:03.303Z,15.00
2023-04-30T07:46:30.218Z,14.84
2023-04-30T07:48:57.095Z,14.94
2023-04-30T07:51:23.891Z,15.10
2023-04-30T07:53:53.240Z,15.36
2023-04-30T07:56:20.001Z,15.55
2023-04-30T07:58:46.800Z,15.57
2023-04-30T08:01:13.526Z,15.90
2023-04-30T08:03:40.547Z,16.07
2023-04-30T08:06:08.098Z,16.15
2023-04-30T08:08:34.834Z,16.48
2023-04-30T08:11:01.586Z,16.28
2023-04-30T08:13:28.275Z,16.41
2023-04-30T08:15:55.092Z,16.32
2023-04-30T08:18:22.079Z,16.93
2023-04-30T08:20:49.027Z,17.34
2023-04-30T08:23:17.123Z,17.40
2023-04-30T08:25:43.929Z,17.40
2023-04-30T08:28:10.742Z,17.56
2023-04-30T08:30:37.402Z,18.74
2023-04-30T08:33:04.273Z,19.19
2023-04-30T08:35:31.232Z,19.39
2023-04-30T08:37:58.487Z,18.92
2023-04-30T08:40:43.543Z,18.87
2023-04-30T08:43:15.677Z,18.64
2023-04-30T08:45:42.758Z,18.03
2023-04-30T08:48:15.837Z,17.68
2023-04-30T08:50:42.747Z,17.48
2023-04-30T08:53:11.556Z,17.69
2023-04-30T08:55:40.447Z,18.09
2023-04-30T08:58:10.544Z,18.24
2023-04-30T09:00:38.124Z,18.37
2023-04-30T09:03:05.945Z,17.81
2023-04-30T09:05:32.718Z,17.37
2023-04-30T09:08:03.612Z,16.94
2023-04-30T09:10:34.899Z,16.58
2023-04-30T09:13:06.907Z,16.09
2023-04-30T09:15:35.759Z,16.22
2023-04-30T09:18:10.881Z,16.05
2023-04-30T09:20:38.333Z,15.63
2023-04-30T09:23:10.772Z,15.54
2023-04-30T09:25:42.512Z,15.31
2023-04-30T09:28:13.948Z,15.32
2023-04-30T09:30:41.942Z,15.32
2023-04-30T09:33:11.949Z,15.34
2023-04-30T09:35:42.132Z,15.07
2023-04-30T09:38:29.027Z,15.29
2023-04-30T09:40:57.861Z,14.49
2023-04-30T09:43:24.741Z,14.67
2023-04-30T09:45:52.760Z,15.15
2023-04-30T09:48:22.872Z,15.45
2023-04-30T09:50:51.060Z,15.85
2023-04-30T09:53:18.538Z,16.10
2023-04-30T09:55:50.279Z,16.56
2023-04-30T09:58:18.462Z,16.45
2023-04-30T10:00:46.476Z,16.18
2023-04-30T10:03:15.052Z,15.88
2023-04-30T10:05:44.453Z,15.68
2023-04-30T10:08:22.231Z,15.39
2023-04-30T10:10:52.910Z,15.15
2023-04-30T10:13:21.904Z,15.07
2023-04-30T10:15:54.480Z,15.34
2023-04-30T10:18:33.962Z,15.27
2023-04-30T10:21:04.048Z,14.85
2023-04-30T10:23:30.883Z,15.18
2023-04-30T10:25:58.465Z,15.34
2023-04-30T10:28:25.374Z,15.53
2023-04-30T10:30:52.506Z,15.28
2023-04-30T10:33:49.998Z,15.55
2023-04-30T10:36:42.610Z,15.65
2023-04-30T10:39:09.486Z,15.89
2023-04-30T10:41:36.245Z,16.10
2023-04-30T10:44:05.439Z,16.54
2023-04-30T10:46:35.899Z,17.47
2023-04-30T10:49:02.950Z,18.23
2023-04-30T10:51:48.592Z,19.30
2023-04-30T10:54:29.819Z,20.16
2023-04-30T10:57:19.441Z,20.77
2023-04-30T11:00:23.709Z,21.07
2023-04-30T11:02:56.768Z,20.61
2023-04-30T11:05:35.739Z,20.27
2023-04-30T11:08:02.611Z,19.72
2023-04-30T11:10:33.833Z,18.97
2023-04-30T11:13:07.916Z,18.21
2023-04-30T11:15:41.729Z,17.40
2023-04-30T11:18:09.936Z,16.95
2023-04-30T11:20:43.999Z,16.83
2023-04-30T11:23:28.184Z,16.75
2023-04-30T11:26:07.422Z,16.59
2023-04-30T11:28:37.916Z,16.69
2023-04-30T11:31:05.199Z,16.78
2023-04-30T11:33:35.261Z,16.82
2023-04-30T11:36:02.767Z,16.82
2023-04-30T11:38:37.627Z,17.17
2023-04-30T11:41:05.493Z,17.06
2023-04-30T11:43:34.206Z,17.26
2023-04-30T11:46:05.130Z,17.17
2023-04-30T11:48:39.800Z,17.00
2023-04-30T11:51:22.169Z,17.04
2023-04-30T11:53:51.686Z,16.92
2023-04-30T11:56:24.538Z,17.04
2023-04-30T11:58:55.906Z,17.41
2023-04-30T12:01:27.324Z,17.93
2023-04-30T12:03:57.708Z,18.64
2023-04-30T12:06:27.728Z,19.86
2023-04-30T12:08:59.404Z,19.83
2023-04-30T12:11:29.010Z,19.78
2023-04-30T12:13:57.132Z,18.89
2023-04-30T12:16:29.076Z,17.86
2023-04-30T12:18:56.122Z,17.50
2023-04-30T12:21:23.252Z,17.74
2023-04-30T12:23:50.500Z,17.36
2023-04-30T12:26:17.971Z,16.92
2023-04-30T12:28:47.656Z,16.84
2023-04-30T12:31:14.415Z,16.41
2023-04-30T12:33:41.193Z,16.19
2023-04-30T12:36:11.383Z,16.62
2023-04-30T12:38:44.180Z,16.90
2023-04-30T12:41:15.573Z,16.96
2023-04-30T12:43:42.340Z,17.03
2023-04-30T12:46:09.214Z,16.89
2023-04-30T12:48:48.182Z,17.74
2023-04-30T12:51:20.222Z,17.87
2023-04-30T12:53:47.258Z,17.75
2023-04-30T12:56:17.860Z,18.27
2023-04-30T12:58:51.505Z,18.38
2023-04-30T13:01:23.189Z,19.30
2023-04-30T13:03:50.818Z,19.88
2023-04-30T13:06:18.070Z,19.76
2023-04-30T13:08:57.254Z,20.00
2023-04-30T13:11:27.010Z,20.32
2023-04-30T13:13:56.065Z,20.26
2023-04-30T13:16:24.857Z,20.54
2023-04-30T13:18:52.168Z,19.88
2023-04-30T13:21:18.916Z,19.21
2023-04-30T13:23:52.878Z,19.26
2023-04-30T13:26:22.258Z,19.11
2023-04-30T13:28:50.026Z,19.52
2023-04-30T13:31:17.262Z,19.34
2023-04-30T13:33:44.155Z,19.08
2023-04-30T13:36:11.135Z,19.24
2023-04-30T13:38:39.438Z,19.18
2023-04-30T13:41:06.829Z,18.97
2023-04-30T13:43:33.571Z,18.98
2023-04-30T13:46:00.328Z,19.04
2023-04-30T13:48:27.117Z,19.13
2023-04-30T13:50:54.306Z,19.39
2023-04-30T13:53:21.007Z,19.85
2023-04-30T13:55:47.756Z,20.19
2023-04-30T13:58:15.940Z,20.75
2023-04-30T14:00:42.701Z,21.15
2023-04-30T14:03:10.169Z,21.50
2023-04-30T14:05:37.582Z,21.49
2023-04-30T14:08:04.609Z,21.30
2023-04-30T14:10:31.780Z,20.26
2023-04-30T14:12:58.909Z,20.39
2023-04-30T14:15:25.717Z,19.35
2023-04-30T14:17:53.125Z,18.93
2023-04-30T14:20:19.904Z,19.16
2023-04-30T14:22:46.615Z,18.63
2023-04-30T14:25:13.603Z,18.63
2023-04-30T14:27:40.455Z,18.04
2023-04-30T14:30:08.111Z,17.96
2023-04-30T14:32:34.927Z,18.19
2023-04-30T14:35:02.766Z,18.05
2023-04-30T14:37:29.704Z,17.88
2023-04-30T14:39:56.764Z,17.80
2023-04-30T14:42:23.873Z,17.87
2023-04-30T14:44:50.615Z,17.74
2023-04-30T14:47:17.394Z,17.87
2023-04-30T14:49:44.111Z,17.60
2023-04-30T14:52:10.814Z,17.99
2023-04-30T14:54:37.803Z,18.86
2023-04-30T14:57:05.810Z,19.23
2023-04-30T14:59:35.030Z,18.99
2023-04-30T15:02:01.897Z,19.40
2023-04-30T15:04:28.747Z,19.16
2023-04-30T15:06:55.542Z,19.06
2023-04-30T15:09:22.409Z,18.74
2023-04-30T15:11:49.271Z,18.44
2023-04-30T15:14:17.412Z,18.47
2023-04-30T15:16:44.238Z,18.22
2023-04-30T15:19:10.965Z,18.20
2023-04-30T15:21:37.852Z,18.05
2023-04-30T15:24:05.382Z,17.99
2023-04-30T15:26:33.132Z,17.78
2023-04-30T15:29:00.048Z,17.92
2023-04-30T15:31:27.085Z,17.94
2023-04-30T15:33:53.879Z,18.27
2023-04-30T15:36:23.507Z,18.79
2023-04-30T15:38:50.456Z,19.07
2023-04-30T15:41:17.245Z,19.12
2023-04-30T15:43:44.024Z,19.56
2023-04-30T15:46:11.959Z,19.68
2023-04-30T15:48:38.853Z,20.09
2023-04-30T15:51:05.619Z,20.23
2023-04-30T15:53:32.459Z,20.22
2023-04-30T15:55:59.295Z,20.06
2023-04-30T15:58:26.221Z,19.95
2023-04-30T16:00:53.885Z,19.10
2023-04-30T16:03:20.893Z,18.40
2023-04-30T16:05:48.274Z,18.09
2023-04-30T16:08:15.251Z,18.13
2023-04-30T16:10:43.561Z,18.25
2023-04-30T16:13:10.292Z,17.93
2023-04-30T16:15:37.277Z,18.10
2023-04-30T16:18:04.089Z,18.17
2023-04-30T16:20:31.626Z,18.36
2023-04-30T16:22:58.535Z,18.56
2023-04-30T16:25:25.309Z,18.16
2023-04-30T16:27:53.116Z,17.95
2023-04-30T16:30:20.000Z,17.52
2023-04-30T16:32:46.864Z,17.50
2023-04-30T16:35:14.765Z,17.48
2023-04-30T16:37:41.693Z,16.95
2023-04-30T16:40:08.896Z,17.21
2023-04-30T16:42:36.061Z,17.29
2023-04-30T16:45:03.228Z,17.65
2023-04-30T16:47:30.237Z,17.56
2023-04-30T16:49:58.721Z,17.62
2023-04-30T16:52:25.881Z,17.12
2023-04-30T16:54:52.713Z,17.17
2023-04-30T16:57:19.796Z,17.11
2023-04-30T16:59:47.252Z,17.10
2023-04-30T17:02:14.111Z,17.02
2023-04-30T17:04:41.387Z,16.77
2023-04-30T17:07:08.680Z,16.81
2023-04-30T17:09:36.852Z,16.50
2023-04-30T17:12:05.487Z,16.29
2023-04-30T17:14:32.726Z,16.03
2023-04-30T17:16:59.530Z,15.86
2023-04-30T17:19:26.278Z,15.73
2023-04-30T17:21:53.314Z,15.44
2023-04-30T17:24:20.467Z,15.16
2023-04-30T17:26:48.024Z,14.93
2023-04-30T17:29:15.278Z,14.69
2023-04-30T17:31:42.866Z,14.50
2023-04-30T17:34:10.377Z,14.22
2023-04-30T17:36:37.704Z,14.26
2023-04-30T17:39:06.140Z,13.82
2023-04-30T17:41:33.595Z,14.00
2023-04-30T17:44:00.981Z,13.79
2023-04-30T17:46:28.569Z,13.53
2023-04-30T17:48:55.870Z,13.20
2023-04-30T17:51:23.117Z,13.16
2023-04-30T17:53:50.393Z,13.25
2023-04-30T17:56:18.524Z,13.10
2023-04-30T17:58:46.206Z,12.77
2023-04-30T18:01:13.991Z,12.56
2023-04-30T18:03:43.305Z,12.24
2023-04-30T18:06:11.017Z,12.15
2023-04-30T18:08:38.336Z,12.00
2023-04-30T18:11:05.484Z,11.99
2023-04-30T18:13:32.899Z,12.16
2023-04-30T18:16:00.251Z,11.85
2023-04-30T18:18:27.337Z,11.45
2023-04-30T18:20:54.486Z,11.53
2023-04-30T18:23:22.259Z,11.51
2023-04-30T18:25:49.505Z,11.31
2023-04-30T18:28:16.796Z,11.16
2023-04-30T18:30:43.603Z,11.08
2023-04-30T18:33:11.040Z,10.99
2023-04-30T18:35:38.157Z,10.94
2023-04-30T18:38:08.256Z,10.97
2023-04-30T18:40:34.989Z,10.87
2023-04-30T18:43:01.897Z,10.67
2023-04-30T18:45:29.219Z,10.62
2023-04-30T18:47:56.032Z,10.58
2023-04-30T18:50:23.061Z,10.46
2023-04-30T18:52:50.362Z,10.46
2023-04-30T18:55:17.731Z,10.52
2023-04-30T18:57:45.146Z,10.32
2023-04-30T19:00:14.485Z,10.07
2023-04-30T19:02:41.505Z,9.89
2023-04-30T19:05:09.376Z,9.90
2023-04-30T19:07:36.337Z,9.70
2023-04-30T19:10:04.717Z,9.69
2023-04-30T19:12:32.696Z,9.72
2023-04-30T19:15:02.295Z,9.59
2023-04-30T19:17:29.671Z,9.33
2023-04-30T19:20:00.703Z,9.21
2023-04-30T19:22:27.660Z,9.29
2023-04-30T19:24:55.147Z,9.24
2023-04-30T19:27:22.088Z,9.20
2023-04-30T19:29:49.373Z,9.13
2023-04-30T19:32:16.579Z,9.00
2023-04-30T19:34:43.834Z,8.93
2023-04-30T19:37:12.321Z,8.94
2023-04-30T19:39:40.594Z,8.89
2023-04-30T19:42:11.376Z,8.72
2023-04-30T19:44:38.563Z,8.63
2023-04-30T19:47:05.417Z,8.74
2023-04-30T19:49:34.703Z,8.69
2023-04-30T19:52:02.741Z,8.52
2023-04-30T19:54:29.876Z,8.42
2023-04-30T19:56:57.986Z,8.42
2023-04-30T19:59:26.999Z,8.31
2023-04-30T20:01:54.691Z,8.20
2023-04-30T20:04:22.286Z,8.16
2023-04-30T20:06:56.563Z,8.12
2023-04-30T20:09:24.031Z,8.11
2023-04-30T20:11:52.253Z,8.29
2023-04-30T20:14:20.417Z,8.15
2023-04-30T20:16:54.468Z,8.00
2023-04-30T20:19:22.640Z,7.79
2023-04-30T20:21:50.148Z,7.91
2023-04-30T20:24:17.035Z,7.69
2023-04-30T20:26:43.949Z,7.71
2023-04-30T20:29:11.196Z,7.75
2023-04-30T20:31:38.351Z,7.78
2023-04-30T20:34:05.258Z,7.65
2023-04-30T20:36:32.720Z,7.63
2023-04-30T20:39:00.147Z,7.59
2023-04-30T20:41:28.456Z,7.46
2023-04-30T20:43:55.371Z,7.33
2023-04-30T20:46:24.490Z,7.38
2023-04-30T20:48:52.031Z,7.23
2023-04-30T20:51:20.247Z,7.20
2023-04-30T20:53:47.428Z,7.32
2023-04-30T20:56:14.222Z,7.11
2023-04-30T20:58:43.028Z,7.13
2023-04-30T21:01:10.068Z,6.97
2023-04-30T21:03:37.201Z,6.94
2023-04-30T21:06:05.382Z,6.73
2023-04-30T21:08:32.154Z,6.76
2023-04-30T21:10:58.897Z,6.75
2023-04-30T21:13:25.733Z,6.77
2023-04-30T21:15:53.516Z,6.71
2023-04-30T21:18:20.273Z,6.73
2023-04-30T21:20:47.017Z,6.70
2023-04-30T21:23:14.745Z,6.58
2023-04-30T21:25:41.516Z,6.54
2023-04-30T21:28:08.226Z,6.48
2023-04-30T21:30:36.453Z,6.37
2023-04-30T21:33:04.118Z,6.25
2023-04-30T21:35:33.189Z,6.17
2023-04-30T21:37:59.981Z,6.26
2023-04-30T21:40:26.741Z,6.27
2023-04-30T21:42:53.541Z,6.28
2023-04-30T21:45:20.356Z,6.18
2023-04-30T21:47:48.004Z,6.20
2023-04-30T21:50:15.042Z,6.05
2023-04-30T21:52:41.936Z,6.03
2023-04-30T21:55:09.795Z,5.84
2023-04-30T21:57:36.611Z,5.89
2023-04-30T22:00:06.929Z,6.11
2023-04-30T22:02:34.041Z,6.02
2023-04-30T22:05:01.048Z,5.97
2023-04-30T22:07:28.287Z,5.90
2023-04-30T22:09:55.185Z,5.85
2023-04-30T22:12:25.165Z,5.82
2023-04-30T22:14:55.750Z,5.93
2023-04-30T22:17:22.941Z,5.80
2023-04-30T22:19:49.752Z,5.79
2023-04-30T22:22:16.785Z,5.70
2023-04-30T22:24:43.538Z,5.55
2023-04-30T22:27:10.259Z,5.53
2023-04-30T22:29:37.128Z,5.77
2023-04-30T22:32:04.835Z,5.65
2023-04-30T22:34:38.085Z,5.53
2023-04-30T22:37:05.272Z,5.38
2023-04-30T22:39:32.149Z,5.41
2023-04-30T22:41:59.249Z,5.34
2023-04-30T22:44:26.633Z,5.60
2023-04-30T22:46:56.731Z,5.43
2023-04-30T22:49:31.218Z,5.45
2023-04-30T22:51:58.858Z,5.50
2023-04-30T22:54:25.805Z,5.34
2023-04-30T22:56:52.597Z,5.25
2023-04-30T22:59:19.552Z,5.16
2023-04-30T23:03:33.984Z,5.04
2023-04-30T23:06:00.816Z,5.15
2023-04-30T23:08:27.653Z,5.12
2023-04-30T23:10:55.752Z,4.97
2023-04-30T23:13:23.003Z,5.03
2023-04-30T23:15:49.894Z,5.00
2023-04-30T23:18:17.855Z,5.07
2023-04-30T23:20:44.631Z,5.07
2023-04-30T23:23:11.462Z,5.12
2023-04-30T23:25:38.414Z,4.93
2023-04-30T23:28:05.347Z,4.90
2023-04-30T23:30:32.111Z,4.97
2023-04-30T23:32:58.930Z,4.94
2023-04-30T23:35:25.665Z,4.98
2023-04-30T23:37:52.395Z,4.80
2023-04-30T23:40:20.125Z,4.76
2023-04-30T23:42:46.970Z,4.80
2023-04-30T23:45:13.771Z,4.80
2023-04-30T23:47:40.553Z,5.02
2023-04-30T23:50:08.056Z,5.05
2023-04-30T23:52:35.947Z,4.96
2023-04-30T23:55:03.265Z,4.91
2023-04-30T23:57:29.945Z,4.78
2023-04-30T23:59:57.275Z,4.93
